createdAt,value
2018-12-10T00:01:45.724Z,76.40
2018-12-10T00:04:13.276Z,76.40
2018-12-10T00:06:40.889Z,76.50
2018-12-10T00:09:09.172Z,76.40
2018-12-10T00:11:37.450Z,76.50
2018-12-10T00:14:05.729Z,76.50
2018-12-10T00:16:34.107Z,76.50
2018-12-10T00:19:01.770Z,76.40
2018-12-10T00:21:29.405Z,76.50
2018-12-10T00:23:56.980Z,76.80
2018-12-10T00:26:24.681Z,77.10
2018-12-10T00:28:52.222Z,77.10
2018-12-10T00:31:19.790Z,77.00
2018-12-10T00:33:47.451Z,77.00
2018-12-10T00:36:15.156Z,76.90
2018-12-10T00:38:42.779Z,76.70
2018-12-10T00:41:10.414Z,76.80
2018-12-10T00:43:38.073Z,76.60
2018-12-10T00:46:05.683Z,76.80
2018-12-10T00:48:33.822Z,76.80
2018-12-10T00:51:01.998Z,76.90
2018-12-10T00:53:29.585Z,77.00
2018-12-10T00:55:57.129Z,76.80
2018-12-10T00:58:24.740Z,77.00
2018-12-10T01:00:52.357Z,77.00
2018-12-10T01:03:19.941Z,76.90
2018-12-10T01:05:47.490Z,76.90
2018-12-10T01:08:15.139Z,77.10
2018-12-10T01:10:42.694Z,76.90
2018-12-10T01:13:10.336Z,77.00
2018-12-10T01:15:37.900Z,77.00
2018-12-10T01:18:05.458Z,77.10
2018-12-10T01:20:33.045Z,77.00
2018-12-10T01:23:01.315Z,77.10
2018-12-10T01:25:29.684Z,77.20
2018-12-10T01:27:57.963Z,77.10
2018-12-10T01:30:26.138Z,77.10
2018-12-10T01:32:53.720Z,77.10
2018-12-10T01:35:21.322Z,77.10
2018-12-10T01:37:48.966Z,77.10
2018-12-10T01:40:16.589Z,77.20
2018-12-10T01:42:44.154Z,77.30
2018-12-10T01:45:11.786Z,77.30
2018-12-10T01:47:39.417Z,77.50
2018-12-10T01:50:06.955Z,77.50
2018-12-10T01:52:34.577Z,77.60
2018-12-10T01:55:02.126Z,77.50
2018-12-10T01:57:29.693Z,77.60
2018-12-10T01:59:57.330Z,77.50
2018-12-10T02:02:24.961Z,77.70
2018-12-10T02:04:53.110Z,77.40
2018-12-10T02:07:21.279Z,77.50
2018-12-10T02:09:49.454Z,77.60
2018-12-10T02:12:17.734Z,77.70
2018-12-10T02:14:46.007Z,77.70
2018-12-10T02:17:14.292Z,77.70
2018-12-10T02:19:41.950Z,77.70
2018-12-10T02:22:09.509Z,77.80
2018-12-10T02:24:37.109Z,77.80
2018-12-10T02:27:04.673Z,77.90
2018-12-10T02:29:32.254Z,77.80
2018-12-10T02:31:59.825Z,77.80
2018-12-10T02:34:27.420Z,77.90
2018-12-10T02:36:55.057Z,77.80
2018-12-10T02:39:22.626Z,78.00
2018-12-10T02:41:50.257Z,78.70
2018-12-10T02:44:17.807Z,78.00
2018-12-10T02:46:45.368Z,77.80
2018-12-10T02:49:13.699Z,78.00
2018-12-10T02:51:41.242Z,78.00
2018-12-10T02:54:08.818Z,78.00
2018-12-10T02:56:36.379Z,78.00
2018-12-10T02:59:04.083Z,77.80
2018-12-10T03:01:31.647Z,77.90
2018-12-10T03:03:59.214Z,77.90
2018-12-10T03:06:26.768Z,77.90
2018-12-10T03:08:54.422Z,77.80
2018-12-10T03:11:22.009Z,77.90
2018-12-10T03:13:49.606Z,78.00
2018-12-10T03:16:17.165Z,78.80
2018-12-10T03:18:44.820Z,77.90
2018-12-10T03:21:13.209Z,78.00
2018-12-10T03:23:41.378Z,78.00
2018-12-10T03:26:09.555Z,78.10
2018-12-10T03:28:37.148Z,78.10
2018-12-10T03:31:04.731Z,78.10
2018-12-10T03:33:32.431Z,78.10
2018-12-10T03:36:00.091Z,78.20
2018-12-10T03:38:27.661Z,78.10
2018-12-10T03:41:05.372Z,78.20
2018-12-10T03:43:32.841Z,78.10
2018-12-10T03:46:00.302Z,78.20
2018-12-10T03:48:27.787Z,78.10
2018-12-10T03:50:55.252Z,78.10
2018-12-10T03:53:22.715Z,78.10
2018-12-10T03:55:50.277Z,78.10
2018-12-10T03:58:17.744Z,78.20
2018-12-10T04:00:45.195Z,78.20
2018-12-10T04:03:12.653Z,78.40
2018-12-10T04:05:40.112Z,78.20
2018-12-10T04:08:07.799Z,78.20
2018-12-10T04:10:35.257Z,78.90
2018-12-10T04:13:02.744Z,78.20
2018-12-10T04:15:30.788Z,78.30
2018-12-10T04:17:58.269Z,78.20
2018-12-10T04:20:25.749Z,78.20
2018-12-10T04:22:53.259Z,78.20
2018-12-10T04:25:20.732Z,78.30
2018-12-10T04:27:48.231Z,78.30
2018-12-10T04:30:15.713Z,78.40
2018-12-10T04:32:43.222Z,79.20
2018-12-10T04:35:10.677Z,78.60
2018-12-10T04:37:38.149Z,78.40
2018-12-10T04:40:05.618Z,78.50
2018-12-10T04:42:33.102Z,78.50
2018-12-10T04:45:00.652Z,78.50
2018-12-10T04:47:28.141Z,78.50
2018-12-10T04:49:55.621Z,78.60
2018-12-10T04:52:23.082Z,78.60
2018-12-10T04:54:50.562Z,78.50
2018-12-10T04:57:18.061Z,78.60
2018-12-10T04:59:52.577Z,78.60
2018-12-10T05:02:14.981Z,78.70
2018-12-10T05:04:42.475Z,78.80
2018-12-10T05:07:09.931Z,78.80
2018-12-10T05:09:37.434Z,78.90
2018-12-10T05:12:04.901Z,78.70
2018-12-10T05:14:32.351Z,78.70
2018-12-10T05:16:59.906Z,78.70
2018-12-10T05:19:27.402Z,78.50
2018-12-10T05:21:54.884Z,78.50
2018-12-10T05:24:22.342Z,78.60
2018-12-10T05:26:49.823Z,78.50
2018-12-10T05:29:17.293Z,78.50
2018-12-10T05:31:45.815Z,78.60
2018-12-10T05:34:13.316Z,78.50
2018-12-10T05:36:40.786Z,78.40
2018-12-10T05:39:08.245Z,78.40
2018-12-10T05:41:35.697Z,78.50
2018-12-10T05:44:03.180Z,78.60
2018-12-10T05:46:30.626Z,78.50
2018-12-10T05:48:58.136Z,78.50
2018-12-10T05:51:25.620Z,78.60
2018-12-10T05:53:53.098Z,78.50
2018-12-10T05:56:20.558Z,78.50
2018-12-10T05:58:48.054Z,78.50
2018-12-10T06:01:15.514Z,78.70
2018-12-10T06:03:42.995Z,78.70
2018-12-10T06:06:12.543Z,78.60
2018-12-10T06:08:40.025Z,78.60
2018-12-10T06:11:07.494Z,78.50
2018-12-10T06:13:34.949Z,78.60
2018-12-10T06:16:02.418Z,78.70
2018-12-10T06:18:29.889Z,78.70
2018-12-10T06:20:57.458Z,78.60
2018-12-10T06:23:25.010Z,78.50
2018-12-10T06:25:52.490Z,78.60
2018-12-10T06:28:19.962Z,78.60
2018-12-10T06:30:47.441Z,78.70
2018-12-10T06:50:58.419Z,78.50
2018-12-10T06:53:27.021Z,78.60
2018-12-10T06:59:00.216Z,78.60
2018-12-10T07:04:22.268Z,78.40
2018-12-10T07:06:50.856Z,78.60
2018-12-10T09:06:24.712Z,76.80
2018-12-10T09:11:50.082Z,76.80
2018-12-10T09:14:17.705Z,76.90
2018-12-10T09:31:24.826Z,76.60
2018-12-10T09:33:52.560Z,76.70
2018-12-10T09:36:20.137Z,77.20
2018-12-10T09:38:48.732Z,76.60
2018-12-10T09:41:21.032Z,76.40
2018-12-10T09:43:48.629Z,76.40
2018-12-10T09:46:16.313Z,76.40
2018-12-10T09:48:43.887Z,76.40
2018-12-10T09:51:11.529Z,76.40
2018-12-10T09:53:39.132Z,76.40
2018-12-10T09:56:06.738Z,76.40
2018-12-10T09:58:34.349Z,76.80
2018-12-10T10:01:01.963Z,76.40
2018-12-10T10:03:29.566Z,76.20
2018-12-10T10:05:57.182Z,76.20
2018-12-10T10:08:24.758Z,77.00
2018-12-10T10:10:53.150Z,76.40
2018-12-10T10:13:21.570Z,76.40
2018-12-10T10:15:49.293Z,76.30
2018-12-10T10:18:16.870Z,76.20
2018-12-10T10:20:44.493Z,76.40
2018-12-10T10:23:12.094Z,76.50
2018-12-10T10:25:39.733Z,76.40
2018-12-10T10:28:07.342Z,76.40
2018-12-10T10:30:35.952Z,76.50
2018-12-10T10:33:03.562Z,76.50
2018-12-10T10:35:31.226Z,76.40
2018-12-10T10:37:58.836Z,76.30
2018-12-10T10:40:26.434Z,76.40
2018-12-10T10:42:54.096Z,76.40
2018-12-10T10:45:21.714Z,76.40
2018-12-10T10:47:49.365Z,76.20
2018-12-10T10:50:17.023Z,76.00
2018-12-10T10:52:44.660Z,76.00
2018-12-10T10:55:12.351Z,75.80
2018-12-10T10:57:39.982Z,75.90
2018-12-10T11:00:13.532Z,75.90
2018-12-10T11:02:46.381Z,75.80
2018-12-10T11:05:14.031Z,75.70
2018-12-10T11:07:41.678Z,75.70
2018-12-10T11:10:09.277Z,75.60
2018-12-10T11:12:36.889Z,75.60
2018-12-10T11:15:04.723Z,75.50
2018-12-10T11:17:32.601Z,75.40
2018-12-10T11:20:00.952Z,75.20
2018-12-10T11:22:28.540Z,75.10
2018-12-10T11:24:56.153Z,75.00
2018-12-10T11:27:23.866Z,74.90
2018-12-10T11:29:51.521Z,74.80
2018-12-10T11:32:19.101Z,74.70
2018-12-10T11:34:46.753Z,74.40
2018-12-10T11:37:14.394Z,74.40
2018-12-10T11:39:42.014Z,74.40
2018-12-10T11:42:09.586Z,74.40
2018-12-10T11:44:38.009Z,74.40
2018-12-10T11:47:12.920Z,74.60
2018-12-10T11:49:35.179Z,74.70
2018-12-10T11:52:03.435Z,74.80
2018-12-10T11:54:31.021Z,75.10
2018-12-10T11:56:59.667Z,75.00
2018-12-10T11:59:28.113Z,74.90
2018-12-10T12:01:55.798Z,74.90
2018-12-10T12:04:23.488Z,74.90
2018-12-10T12:06:51.250Z,75.00
2018-12-10T12:09:18.882Z,74.80
2018-12-10T12:11:46.541Z,74.80
2018-12-10T12:14:14.244Z,74.70
2018-12-10T12:16:41.914Z,74.60
2018-12-10T12:19:11.465Z,74.60
2018-12-10T12:21:39.292Z,74.60
2018-12-10T12:24:07.648Z,74.80
2018-12-10T12:26:35.354Z,74.90
2018-12-10T12:29:02.943Z,75.00
2018-12-10T12:31:30.567Z,74.70
2018-12-10T12:33:58.248Z,74.60
2018-12-10T12:36:25.901Z,74.70
2018-12-10T12:41:28.291Z,74.60
2018-12-10T12:43:55.980Z,74.70
2018-12-10T12:46:23.578Z,74.70
2018-12-10T12:48:51.183Z,74.70
2018-12-10T12:51:18.760Z,74.80
2018-12-10T12:53:46.358Z,74.50
2018-12-10T12:56:14.635Z,74.50
2018-12-10T12:58:42.202Z,74.80
2018-12-10T13:01:09.904Z,74.80
2018-12-10T13:03:37.542Z,74.80
2018-12-10T13:06:06.860Z,74.80
2018-12-10T13:08:34.806Z,74.70
2018-12-10T13:11:02.521Z,74.70
2018-12-10T13:13:30.107Z,74.70
2018-12-10T13:15:57.687Z,74.00
2018-12-10T13:18:25.418Z,74.70
2018-12-10T13:20:53.217Z,74.80
2018-12-10T13:23:20.914Z,74.70
2018-12-10T13:25:48.502Z,74.70
2018-12-10T13:28:17.023Z,74.60
2018-12-10T13:30:44.666Z,74.70
2018-12-10T13:33:12.277Z,74.70
2018-12-10T13:35:39.838Z,74.70
2018-12-10T13:38:12.336Z,74.70
2018-12-10T13:40:36.985Z,74.70
2018-12-10T13:43:04.627Z,74.60
2018-12-10T13:45:32.310Z,74.70
2018-12-10T13:47:59.957Z,74.60
2018-12-10T13:50:27.661Z,74.70
2018-12-10T13:52:55.205Z,74.80
2018-12-10T13:55:22.856Z,74.60
2018-12-10T13:57:50.518Z,74.60
2018-12-10T14:00:18.139Z,74.60
2018-12-10T14:02:46.039Z,74.70
2018-12-10T14:05:15.731Z,74.80
2018-12-10T14:07:47.956Z,74.70
2018-12-10T14:10:12.887Z,74.60
2018-12-10T14:12:40.497Z,74.70
2018-12-10T14:15:08.627Z,74.70
2018-12-10T14:17:36.221Z,74.60
2018-12-10T14:20:04.573Z,74.60
2018-12-10T14:22:32.188Z,74.50
2018-12-10T14:24:59.773Z,74.60
2018-12-10T14:27:27.557Z,74.60
2018-12-10T14:29:55.218Z,74.60
2018-12-10T14:32:23.920Z,74.70
2018-12-10T14:34:52.300Z,74.60
2018-12-10T14:37:20.576Z,74.70
2018-12-10T14:39:48.194Z,74.80
2018-12-10T14:42:21.565Z,74.80
2018-12-10T14:44:49.140Z,74.80
2018-12-10T14:47:16.761Z,74.80
2018-12-10T14:49:44.307Z,74.80
2018-12-10T14:52:11.934Z,74.70
2018-12-10T14:54:39.769Z,74.70
2018-12-10T14:57:07.422Z,74.60
2018-12-10T14:59:34.977Z,74.60
2018-12-10T15:02:03.104Z,74.80
2018-12-10T15:04:30.712Z,74.80
2018-12-10T15:06:58.311Z,74.70
2018-12-10T15:09:26.540Z,74.70
2018-12-10T15:11:54.134Z,74.70
2018-12-10T15:14:21.755Z,75.40
2018-12-10T15:16:49.338Z,74.70
2018-12-10T15:19:16.945Z,74.80
2018-12-10T15:21:44.666Z,74.80
2018-12-10T15:24:12.269Z,74.80
2018-12-10T15:26:39.979Z,74.80
2018-12-10T15:29:08.863Z,74.80
2018-12-10T15:31:36.691Z,74.70
2018-12-10T15:34:04.285Z,74.60
2018-12-10T15:36:32.489Z,74.60
2018-12-10T15:39:00.294Z,74.70
2018-12-10T15:41:28.831Z,74.60
2018-12-10T15:43:56.519Z,74.60
2018-12-10T15:46:24.310Z,74.50
2018-12-10T15:48:51.911Z,74.50
2018-12-10T15:51:19.524Z,74.70
2018-12-10T15:53:47.158Z,74.70
2018-12-10T15:56:14.794Z,74.60
2018-12-10T15:58:42.449Z,74.70
2018-12-10T16:01:11.839Z,74.60
2018-12-10T16:03:39.887Z,74.50
2018-12-10T16:06:07.587Z,74.60
2018-12-10T16:08:35.217Z,74.50
2018-12-10T16:11:02.828Z,74.60
2018-12-10T16:13:31.243Z,75.30
2018-12-10T16:15:59.582Z,74.60
2018-12-10T16:18:27.358Z,74.60
2018-12-10T16:20:55.120Z,74.60
2018-12-10T16:23:22.847Z,74.60
2018-12-10T16:25:50.467Z,74.50
2018-12-10T16:28:18.064Z,74.50
2018-12-10T16:30:45.965Z,74.60
2018-12-10T16:33:13.761Z,74.70
2018-12-10T16:35:41.371Z,74.50
2018-12-10T16:38:08.991Z,74.40
2018-12-10T16:40:36.591Z,74.10
2018-12-10T16:43:04.170Z,74.40
2018-12-10T16:45:31.801Z,74.40
2018-12-10T16:48:00.210Z,74.40
2018-12-10T16:50:27.827Z,74.40
2018-12-10T16:52:55.533Z,74.30
2018-12-10T16:55:23.137Z,74.40
2018-12-10T16:57:50.791Z,74.20
2018-12-10T17:00:18.474Z,74.30
2018-12-10T17:02:46.064Z,74.40
2018-12-10T17:05:13.727Z,74.30
2018-12-10T17:07:41.327Z,74.30
2018-12-10T17:10:09.670Z,74.30
2018-12-10T17:12:37.615Z,74.20
2018-12-10T17:15:06.159Z,74.00
2018-12-10T17:17:34.637Z,73.80
2018-12-10T17:20:02.270Z,73.80
2018-12-10T17:22:30.670Z,73.90
2018-12-10T17:24:59.324Z,73.80
2018-12-10T17:27:26.982Z,73.70
2018-12-10T17:29:54.579Z,73.70
2018-12-10T17:32:22.227Z,73.70
2018-12-10T17:34:49.854Z,73.70
2018-12-10T17:37:17.448Z,73.70
2018-12-10T17:39:45.026Z,73.70
2018-12-10T17:42:12.741Z,73.70
2018-12-10T17:44:40.329Z,73.80
2018-12-10T17:47:08.861Z,73.60
2018-12-10T17:49:36.742Z,73.70
2018-12-10T17:52:04.334Z,73.70
2018-12-10T17:54:32.629Z,73.70
2018-12-10T17:57:00.356Z,73.70
2018-12-10T17:59:28.113Z,73.70
2018-12-10T18:01:55.883Z,73.60
2018-12-10T18:04:23.456Z,73.60
2018-12-10T18:06:51.086Z,73.60
2018-12-10T18:09:18.706Z,73.70
2018-12-10T18:11:46.354Z,73.70
2018-12-10T18:14:14.030Z,73.60
2018-12-10T18:16:41.658Z,73.70
2018-12-10T18:19:09.250Z,73.70
2018-12-10T18:21:36.852Z,73.70
2018-12-10T18:24:04.522Z,73.70
2018-12-10T18:26:32.754Z,73.70
2018-12-10T18:29:00.405Z,73.60
2018-12-10T18:31:28.111Z,73.60
2018-12-10T18:33:55.973Z,73.70
2018-12-10T18:36:23.709Z,74.40
2018-12-10T18:38:51.822Z,73.80
2018-12-10T18:41:23.122Z,73.80
2018-12-10T18:43:50.841Z,73.80
2018-12-10T18:46:18.480Z,73.70
2018-12-10T18:48:46.326Z,73.80
2018-12-10T18:51:15.566Z,73.70
2018-12-10T18:53:43.263Z,73.50
2018-12-10T18:56:10.864Z,73.40
2018-12-10T18:58:39.330Z,73.40
2018-12-10T19:01:07.711Z,73.20
2018-12-10T19:03:36.091Z,73.10
2018-12-10T19:06:04.469Z,73.10
2018-12-10T19:08:32.065Z,73.20
2018-12-10T19:10:59.796Z,73.10
2018-12-10T19:13:32.172Z,73.20
2018-12-10T19:16:00.108Z,73.20
2018-12-10T19:18:27.861Z,73.30
2018-12-10T19:20:55.760Z,73.00
2018-12-10T19:23:23.411Z,73.10
2018-12-10T19:25:51.114Z,73.00
2018-12-10T19:28:18.761Z,73.20
2018-12-10T19:30:46.689Z,73.30
2018-12-10T19:33:14.584Z,73.10
2018-12-10T19:35:42.530Z,73.50
2018-12-10T19:38:10.843Z,73.60
2018-12-10T19:40:39.529Z,73.50
2018-12-10T19:43:07.459Z,73.80
2018-12-10T19:45:35.026Z,73.80
2018-12-10T19:48:02.678Z,73.80
2018-12-10T19:50:30.569Z,73.70
2018-12-10T19:52:58.190Z,73.80
2018-12-10T19:55:26.240Z,73.70
2018-12-10T19:57:53.880Z,73.70
2018-12-10T20:00:21.703Z,73.70
2018-12-10T20:02:49.514Z,73.60
2018-12-10T20:05:17.149Z,73.80
2018-12-10T20:07:44.780Z,73.80
2018-12-10T20:10:12.716Z,73.80
2018-12-10T20:12:40.321Z,73.70
2018-12-10T20:15:08.960Z,73.70
2018-12-10T20:17:37.360Z,73.70
2018-12-10T20:20:06.736Z,73.70
2018-12-10T20:22:36.151Z,73.70
2018-12-10T20:25:04.718Z,73.70
2018-12-10T20:27:33.111Z,73.50
2018-12-10T20:30:01.704Z,71.60
2018-12-10T20:32:29.981Z,72.60
2018-12-10T20:34:59.372Z,73.40
2018-12-10T20:37:27.876Z,73.40
2018-12-10T20:39:55.813Z,73.20
2018-12-10T20:42:25.019Z,73.00
2018-12-10T20:44:52.675Z,73.10
2018-12-10T20:47:20.440Z,73.30
2018-12-10T20:49:48.018Z,73.50
2018-12-10T20:52:15.668Z,73.60
2018-12-10T20:54:43.444Z,73.90
2018-12-10T20:57:11.031Z,74.00
2018-12-10T20:59:38.610Z,74.00
2018-12-10T21:02:06.534Z,74.20
2018-12-10T21:04:34.232Z,74.10
2018-12-10T21:07:01.902Z,74.10
2018-12-10T21:09:29.548Z,74.30
2018-12-10T21:11:57.160Z,74.30
2018-12-10T21:14:24.747Z,74.40
2018-12-10T21:16:52.346Z,74.30
2018-12-10T21:19:19.959Z,74.50
2018-12-10T21:21:47.621Z,74.50
2018-12-10T21:24:15.251Z,74.60
2018-12-10T21:26:42.984Z,74.70
2018-12-10T21:29:10.566Z,74.80
2018-12-10T21:31:38.213Z,74.90
2018-12-10T21:34:05.998Z,75.00
2018-12-10T21:36:34.691Z,75.00
2018-12-10T21:39:03.175Z,75.10
2018-12-10T21:41:30.805Z,75.20
2018-12-10T21:43:58.366Z,75.30
2018-12-10T21:46:26.050Z,75.20
2018-12-10T21:48:53.731Z,75.40
2018-12-10T21:51:21.328Z,75.50
2018-12-10T21:53:48.951Z,75.50
2018-12-10T21:56:16.561Z,75.50
2018-12-10T21:58:44.276Z,75.50
2018-12-10T22:01:11.906Z,75.60
2018-12-10T22:03:39.741Z,75.70
2018-12-10T22:06:07.378Z,75.60
2018-12-10T22:08:43.002Z,75.70
2018-12-10T22:11:14.254Z,75.80
2018-12-10T22:13:41.867Z,75.80
2018-12-10T22:16:09.517Z,75.70
2018-12-10T22:18:37.107Z,75.80
2018-12-10T22:21:04.994Z,75.90
2018-12-10T22:23:32.667Z,76.50
2018-12-10T22:26:00.344Z,75.90
2018-12-10T22:28:27.965Z,75.80
2018-12-10T22:30:55.810Z,76.00
2018-12-10T22:33:23.456Z,75.90
2018-12-10T22:35:51.248Z,76.60
2018-12-10T22:38:18.883Z,76.00
2018-12-10T22:40:46.861Z,75.80
2018-12-10T22:43:14.445Z,75.80
2018-12-10T22:45:42.105Z,75.70
2018-12-10T22:48:09.683Z,75.80
2018-12-10T22:50:37.350Z,75.80
2018-12-10T22:53:04.993Z,75.80
2018-12-10T22:55:32.617Z,75.70
2018-12-10T22:58:00.398Z,75.80
2018-12-10T23:01:01.677Z,75.70
2018-12-10T23:03:30.170Z,75.90
2018-12-10T23:05:57.894Z,75.90
2018-12-10T23:08:25.475Z,76.10
2018-12-10T23:10:53.097Z,76.20
2018-12-10T23:13:20.698Z,76.40
2018-12-10T23:15:48.373Z,76.20
2018-12-10T23:18:17.014Z,76.30
2018-12-10T23:20:44.601Z,76.50
2018-12-10T23:23:12.283Z,76.50
2018-12-10T23:25:39.866Z,76.50
2018-12-10T23:28:07.473Z,76.50
2018-12-10T23:30:35.044Z,76.60
2018-12-10T23:33:02.641Z,76.60
2018-12-10T23:35:30.221Z,77.10
2018-12-10T23:37:59.846Z,77.10
2018-12-10T23:40:27.397Z,76.90
2018-12-10T23:43:00.427Z,77.00
2018-12-10T23:45:28.021Z,77.00
2018-12-10T23:47:55.582Z,77.00
2018-12-10T23:50:23.206Z,76.90
2018-12-10T23:52:50.801Z,76.90
2018-12-10T23:55:18.387Z,76.90
2018-12-10T23:57:46.105Z,76.90
